Pagrindinis puslapis
METAR-TAF:

METAR-TAF

Oro uostai :

Frontone, Italija

platuma: 43-31N, ilguma: 012-44E, Aukštis: 570 m

Dabartinis oras

Ataskaita buvo paskelbta 37 minutes, ne 18:55 UTC
Vėjas 4 kt iš Rytų/Šiaurės Rytų
Temperatūra 15°C
Drėgmė 72%
Slėgis 1020 hPa
Matomumas 10 km arba daugiau
Mažai debesys ne aukštis 3000 ft
Išsisklaidę debesys ne aukštis 4000 ft

METAR: LIVF 191855Z 06004KT 9999 FEW030 SCT040 15/10 Q1020 RMK BKN MON S W CLD CIME NC VAL NIL VIS MIN 9999

Laikas: 21:32 (19:32 UTC)


TAF: trūkstamas

Orai ataskaitas ir orų prognozės (METAR, TAF).

turimą stotys yra geltonos ir raudonos taškus žemėlapyje.

Perkelti pele per norėdami pamatyti stoties vardą.

Tada spustelėkite, norėdami matyti oro stebėjimo ir prognozės.

Norėdami pakeisti žemėlapį: spustelėkite ant žalios mygtukų su juodo kryžiaus žemyn,; žalią mygtuką su brūkšneliu, jei norite nutolinti; arba žalių rodyklių gretimoms žemėlapius.


METAR-TAF: